WMKN/TGG METAR and TAF weather

Enter ICAO airport designator
Station Type Date Time Source
WMKN METAR 2020/09/27 03:00 UTC NOAA

WMKN 270300Z 21005KT 150V250 9999 FEW016 SCT022 27/24 Q1010


Station Type Date Time Source
WMKN Decoded METAR 2020/09/27 03:00 UTC NOAA

Station name not available
Sep 26, 2020 - 11:00 PM EDT / 2020.09.27 0300 UTC
Wind: from the SSW (210 degrees) at 6 MPH (5 KT) (direction variable):0
Visibility: greater than 7 mile(s):0
Sky conditions: partly cloudy
Temperature: 80 F (27 C)
Dew Point: 75 F (24 C)
Relative Humidity: 83%
Pressure (altimeter): 29.83 in. Hg (1010 hPa)
ob: WMKN 270300Z 21005KT 150V250 9999 FEW016 SCT022 27/24 Q1010
cycle: 3

Station Type Date Time Source
WMKN TAF 2020/09/26 18:00 UTC NOAA

TAF WMKN 261700Z 2618/2718 22006KT 9999 FEW017CB
BECMG 2621/2622 VRB03KT FEW022
BECMG 2700/2701 35006KT FEW018
BECMG 2710/2711 FEW017CB
TEMPO 2712/2716 7000 -TSRA FEW017CB

Example: see airport list